sensor_id;sensor_type;location;lat;lon;timestamp;P1;durP1;ratioP1;P2;durP2;ratioP2
24761;SDS011;12865;51.934;10.330;2023-03-16T00:01:06;7.43;;;2.03;;
24761;SDS011;12865;51.934;10.330;2023-03-16T00:03:52;5.68;;;1.92;;
24761;SDS011;12865;51.934;10.330;2023-03-16T00:06:38;6.15;;;2.10;;
24761;SDS011;12865;51.934;10.330;2023-03-16T00:09:24;5.47;;;1.80;;
24761;SDS011;12865;51.934;10.330;2023-03-16T00:12:16;3.95;;;1.70;;
24761;SDS011;12865;51.934;10.330;2023-03-16T00:15:03;5.63;;;2.00;;
24761;SDS011;12865;51.934;10.330;2023-03-16T00:17:49;6.20;;;1.83;;
24761;SDS011;12865;51.934;10.330;2023-03-16T00:20:35;5.10;;;2.00;;
24761;SDS011;12865;51.934;10.330;2023-03-16T00:23:21;5.43;;;1.88;;
24761;SDS011;12865;51.934;10.330;2023-03-16T00:26:12;3.80;;;1.75;;
24761;SDS011;12865;51.934;10.330;2023-03-16T00:28:58;5.05;;;2.15;;
24761;SDS011;12865;51.934;10.330;2023-03-16T00:31:44;4.07;;;1.60;;
24761;SDS011;12865;51.934;10.330;2023-03-16T00:34:29;7.38;;;1.85;;
24761;SDS011;12865;51.934;10.330;2023-03-16T00:37:19;3.03;;;1.67;;
24761;SDS011;12865;51.934;10.330;2023-03-16T00:40:07;5.85;;;1.90;;
24761;SDS011;12865;51.934;10.330;2023-03-16T00:42:53;5.35;;;2.00;;
24761;SDS011;12865;51.934;10.330;2023-03-16T00:45:39;4.95;;;1.80;;
24761;SDS011;12865;51.934;10.330;2023-03-16T00:51:18;6.65;;;1.67;;
24761;SDS011;12865;51.934;10.330;2023-03-16T00:54:04;6.53;;;2.00;;
24761;SDS011;12865;51.934;10.330;2023-03-16T00:56:50;5.38;;;1.80;;
24761;SDS011;12865;51.934;10.330;2023-03-16T00:59:35;7.63;;;1.90;;
24761;SDS011;12865;51.934;10.330;2023-03-16T01:02:22;5.00;;;2.63;;
24761;SDS011;12865;51.934;10.330;2023-03-16T01:05:08;5.72;;;2.10;;
24761;SDS011;12865;51.934;10.330;2023-03-16T01:07:55;6.32;;;2.17;;
24761;SDS011;12865;51.934;10.330;2023-03-16T01:10:40;6.18;;;2.28;;
24761;SDS011;12865;51.934;10.330;2023-03-16T01:13:26;3.65;;;1.75;;
24761;SDS011;12865;51.934;10.330;2023-03-16T01:16:12;5.63;;;1.73;;
24761;SDS011;12865;51.934;10.330;2023-03-16T01:18:59;4.03;;;1.70;;
24761;SDS011;12865;51.934;10.330;2023-03-16T01:21:45;3.67;;;1.70;;
24761;SDS011;12865;51.934;10.330;2023-03-16T01:24:31;2.90;;;1.58;;
24761;SDS011;12865;51.934;10.330;2023-03-16T01:27:19;5.05;;;1.65;;
24761;SDS011;12865;51.934;10.330;2023-03-16T01:30:05;8.07;;;1.92;;
24761;SDS011;12865;51.934;10.330;2023-03-16T01:32:51;6.32;;;1.77;;
24761;SDS011;12865;51.934;10.330;2023-03-16T01:35:36;3.38;;;1.52;;
24761;SDS011;12865;51.934;10.330;2023-03-16T01:38:22;3.55;;;1.73;;
24761;SDS011;12865;51.934;10.330;2023-03-16T01:41:08;2.42;;;1.67;;
24761;SDS011;12865;51.934;10.330;2023-03-16T01:43:54;4.78;;;2.05;;
24761;SDS011;12865;51.934;10.330;2023-03-16T01:46:42;4.32;;;1.63;;
24761;SDS011;12865;51.934;10.330;2023-03-16T01:49:32;2.33;;;1.42;;
24761;SDS011;12865;51.934;10.330;2023-03-16T01:52:26;3.83;;;1.98;;
24761;SDS011;12865;51.934;10.330;2023-03-16T01:55:17;6.80;;;1.63;;
24761;SDS011;12865;51.934;10.330;2023-03-16T01:58:03;4.57;;;1.60;;
24761;SDS011;12865;51.934;10.330;2023-03-16T02:00:49;6.50;;;1.67;;
24761;SDS011;12865;51.934;10.330;2023-03-16T02:03:34;4.30;;;1.63;;
24761;SDS011;12865;51.934;10.330;2023-03-16T02:06:20;7.95;;;1.45;;
24761;SDS011;12865;51.934;10.330;2023-03-16T02:09:07;3.22;;;1.88;;
24761;SDS011;12865;51.934;10.330;2023-03-16T02:11:54;5.03;;;1.40;;
24761;SDS011;12865;51.934;10.330;2023-03-16T02:14:40;4.47;;;1.38;;
24761;SDS011;12865;51.934;10.330;2023-03-16T02:17:26;3.28;;;1.45;;
24761;SDS011;12865;51.934;10.330;2023-03-16T02:23:26;7.38;;;1.67;;
24761;SDS011;12865;51.934;10.330;2023-03-16T02:32:14;7.50;;;1.65;;
24761;SDS011;12865;51.934;10.330;2023-03-16T02:35:01;5.60;;;1.50;;
24761;SDS011;12865;51.934;10.330;2023-03-16T02:37:47;4.43;;;1.38;;
24761;SDS011;12865;51.934;10.330;2023-03-16T02:40:33;5.75;;;1.60;;
24761;SDS011;12865;51.934;10.330;2023-03-16T02:43:21;6.07;;;1.75;;
24761;SDS011;12865;51.934;10.330;2023-03-16T02:46:12;3.58;;;1.45;;
24761;SDS011;12865;51.934;10.330;2023-03-16T02:52:24;2.70;;;1.35;;
24761;SDS011;12865;51.934;10.330;2023-03-16T02:55:09;2.03;;;1.45;;
24761;SDS011;12865;51.934;10.330;2023-03-16T02:57:55;5.88;;;1.60;;
24761;SDS011;12865;51.934;10.330;2023-03-16T03:00:41;3.83;;;1.42;;
24761;SDS011;12865;51.934;10.330;2023-03-16T03:03:29;4.18;;;1.60;;
24761;SDS011;12865;51.934;10.330;2023-03-16T03:06:18;3.35;;;1.40;;
24761;SDS011;12865;51.934;10.330;2023-03-16T03:09:04;6.63;;;1.52;;
24761;SDS011;12865;51.934;10.330;2023-03-16T03:11:50;2.90;;;1.30;;
24761;SDS011;12865;51.934;10.330;2023-03-16T03:14:36;2.83;;;1.40;;
24761;SDS011;12865;51.934;10.330;2023-03-16T03:17:24;3.85;;;1.48;;
24761;SDS011;12865;51.934;10.330;2023-03-16T03:20:14;4.03;;;1.58;;
24761;SDS011;12865;51.934;10.330;2023-03-16T03:23:04;5.30;;;1.52;;
24761;SDS011;12865;51.934;10.330;2023-03-16T03:25:49;5.38;;;1.60;;
24761;SDS011;12865;51.934;10.330;2023-03-16T03:28:35;4.70;;;1.45;;
24761;SDS011;12865;51.934;10.330;2023-03-16T03:31:21;5.70;;;1.90;;
24761;SDS011;12865;51.934;10.330;2023-03-16T03:34:07;3.60;;;1.42;;
24761;SDS011;12865;51.934;10.330;2023-03-16T03:36:52;3.72;;;1.88;;
24761;SDS011;12865;51.934;10.330;2023-03-16T03:39:38;6.22;;;1.58;;
24761;SDS011;12865;51.934;10.330;2023-03-16T03:42:24;4.28;;;1.58;;
24761;SDS011;12865;51.934;10.330;2023-03-16T03:45:11;5.65;;;1.60;;
24761;SDS011;12865;51.934;10.330;2023-03-16T03:47:57;6.57;;;1.40;;
24761;SDS011;12865;51.934;10.330;2023-03-16T03:50:43;3.78;;;1.30;;
24761;SDS011;12865;51.934;10.330;2023-03-16T03:53:29;3.58;;;1.73;;
24761;SDS011;12865;51.934;10.330;2023-03-16T03:56:14;5.60;;;1.65;;
24761;SDS011;12865;51.934;10.330;2023-03-16T03:59:00;5.15;;;1.83;;
24761;SDS011;12865;51.934;10.330;2023-03-16T04:01:45;6.32;;;1.45;;
24761;SDS011;12865;51.934;10.330;2023-03-16T04:04:33;5.28;;;1.17;;
24761;SDS011;12865;51.934;10.330;2023-03-16T04:07:18;5.03;;;1.50;;
24761;SDS011;12865;51.934;10.330;2023-03-16T04:10:05;5.70;;;1.65;;
24761;SDS011;12865;51.934;10.330;2023-03-16T04:12:51;3.90;;;1.02;;
24761;SDS011;12865;51.934;10.330;2023-03-16T04:15:37;4.40;;;1.35;;
24761;SDS011;12865;51.934;10.330;2023-03-16T04:18:23;7.35;;;1.67;;
24761;SDS011;12865;51.934;10.330;2023-03-16T04:21:11;5.53;;;1.70;;
24761;SDS011;12865;51.934;10.330;2023-03-16T04:24:00;6.78;;;1.90;;
24761;SDS011;12865;51.934;10.330;2023-03-16T04:26:48;3.72;;;1.30;;
24761;SDS011;12865;51.934;10.330;2023-03-16T04:29:34;5.35;;;1.58;;
24761;SDS011;12865;51.934;10.330;2023-03-16T04:32:20;5.78;;;1.42;;
24761;SDS011;12865;51.934;10.330;2023-03-16T04:35:05;5.05;;;1.30;;
24761;SDS011;12865;51.934;10.330;2023-03-16T04:37:52;3.10;;;1.50;;
24761;SDS011;12865;51.934;10.330;2023-03-16T04:40:38;5.82;;;1.55;;
24761;SDS011;12865;51.934;10.330;2023-03-16T04:43:23;1.88;;;1.30;;
24761;SDS011;12865;51.934;10.330;2023-03-16T04:46:09;4.28;;;1.30;;
24761;SDS011;12865;51.934;10.330;2023-03-16T04:48:55;5.57;;;1.48;;
24761;SDS011;12865;51.934;10.330;2023-03-16T04:51:42;9.18;;;1.73;;
24761;SDS011;12865;51.934;10.330;2023-03-16T04:54:28;3.80;;;1.52;;
24761;SDS011;12865;51.934;10.330;2023-03-16T04:57:13;3.92;;;1.33;;
24761;SDS011;12865;51.934;10.330;2023-03-16T05:00:03;2.65;;;1.40;;
24761;SDS011;12865;51.934;10.330;2023-03-16T05:02:58;8.35;;;1.58;;
24761;SDS011;12865;51.934;10.330;2023-03-16T05:05:44;5.32;;;2.03;;
24761;SDS011;12865;51.934;10.330;2023-03-16T05:08:31;4.20;;;1.35;;
24761;SDS011;12865;51.934;10.330;2023-03-16T05:11:17;3.40;;;1.40;;
24761;SDS011;12865;51.934;10.330;2023-03-16T05:14:02;5.60;;;1.30;;
24761;SDS011;12865;51.934;10.330;2023-03-16T05:16:48;4.80;;;1.42;;
24761;SDS011;12865;51.934;10.330;2023-03-16T05:19:34;3.55;;;1.30;;
24761;SDS011;12865;51.934;10.330;2023-03-16T05:22:19;2.80;;;1.25;;
24761;SDS011;12865;51.934;10.330;2023-03-16T05:25:05;5.70;;;1.35;;
24761;SDS011;12865;51.934;10.330;2023-03-16T05:27:52;4.65;;;1.20;;
24761;SDS011;12865;51.934;10.330;2023-03-16T05:30:38;4.03;;;1.27;;
24761;SDS011;12865;51.934;10.330;2023-03-16T05:33:24;4.20;;;1.33;;
24761;SDS011;12865;51.934;10.330;2023-03-16T05:36:10;4.45;;;1.33;;
24761;SDS011;12865;51.934;10.330;2023-03-16T05:38:56;5.82;;;1.42;;
24761;SDS011;12865;51.934;10.330;2023-03-16T05:41:42;5.07;;;2.33;;
24761;SDS011;12865;51.934;10.330;2023-03-16T05:44:28;3.92;;;1.45;;
24761;SDS011;12865;51.934;10.330;2023-03-16T05:47:14;3.83;;;1.35;;
24761;SDS011;12865;51.934;10.330;2023-03-16T05:49:59;2.03;;;1.52;;
24761;SDS011;12865;51.934;10.330;2023-03-16T05:52:45;6.47;;;1.88;;
24761;SDS011;12865;51.934;10.330;2023-03-16T05:55:31;2.78;;;1.23;;
24761;SDS011;12865;51.934;10.330;2023-03-16T05:58:17;3.65;;;1.20;;
24761;SDS011;12865;51.934;10.330;2023-03-16T06:01:02;3.05;;;1.30;;
24761;SDS011;12865;51.934;10.330;2023-03-16T06:03:50;3.65;;;1.45;;
24761;SDS011;12865;51.934;10.330;2023-03-16T06:06:36;2.83;;;1.35;;
24761;SDS011;12865;51.934;10.330;2023-03-16T06:09:22;3.97;;;1.30;;
24761;SDS011;12865;51.934;10.330;2023-03-16T06:12:07;3.70;;;1.40;;
24761;SDS011;12865;51.934;10.330;2023-03-16T06:14:53;4.80;;;1.33;;
24761;SDS011;12865;51.934;10.330;2023-03-16T06:17:39;4.63;;;1.25;;
24761;SDS011;12865;51.934;10.330;2023-03-16T06:20:25;2.00;;;1.10;;
24761;SDS011;12865;51.934;10.330;2023-03-16T06:23:11;3.85;;;1.55;;
24761;SDS011;12865;51.934;10.330;2023-03-16T06:25:57;3.45;;;1.05;;
24761;SDS011;12865;51.934;10.330;2023-03-16T06:28:44;3.25;;;1.35;;
24761;SDS011;12865;51.934;10.330;2023-03-16T06:31:30;2.10;;;1.55;;
24761;SDS011;12865;51.934;10.330;2023-03-16T06:34:18;3.50;;;1.38;;
24761;SDS011;12865;51.934;10.330;2023-03-16T06:37:03;3.75;;;1.00;;
24761;SDS011;12865;51.934;10.330;2023-03-16T06:39:49;4.25;;;1.20;;
24761;SDS011;12865;51.934;10.330;2023-03-16T06:42:35;4.82;;;1.83;;
24761;SDS011;12865;51.934;10.330;2023-03-16T06:45:21;5.43;;;1.38;;
24761;SDS011;12865;51.934;10.330;2023-03-16T06:48:06;8.90;;;1.38;;
24761;SDS011;12865;51.934;10.330;2023-03-16T06:50:54;4.22;;;1.15;;
24761;SDS011;12865;51.934;10.330;2023-03-16T06:53:39;2.55;;;1.65;;
24761;SDS011;12865;51.934;10.330;2023-03-16T06:56:25;3.83;;;1.42;;
24761;SDS011;12865;51.934;10.330;2023-03-16T06:59:12;6.57;;;1.67;;
24761;SDS011;12865;51.934;10.330;2023-03-16T07:01:57;5.35;;;1.50;;
24761;SDS011;12865;51.934;10.330;2023-03-16T07:04:43;4.07;;;1.40;;
24761;SDS011;12865;51.934;10.330;2023-03-16T07:07:29;7.00;;;1.20;;
24761;SDS011;12865;51.934;10.330;2023-03-16T07:10:15;4.25;;;1.10;;
24761;SDS011;12865;51.934;10.330;2023-03-16T07:13:02;4.05;;;1.27;;
24761;SDS011;12865;51.934;10.330;2023-03-16T07:15:49;4.72;;;1.40;;
24761;SDS011;12865;51.934;10.330;2023-03-16T07:18:36;4.18;;;1.27;;
24761;SDS011;12865;51.934;10.330;2023-03-16T07:21:24;3.42;;;1.15;;
24761;SDS011;12865;51.934;10.330;2023-03-16T07:24:10;4.85;;;1.17;;
24761;SDS011;12865;51.934;10.330;2023-03-16T07:26:57;4.15;;;1.33;;
24761;SDS011;12865;51.934;10.330;2023-03-16T07:29:42;4.93;;;1.40;;
24761;SDS011;12865;51.934;10.330;2023-03-16T07:32:28;4.18;;;1.25;;
24761;SDS011;12865;51.934;10.330;2023-03-16T07:35:14;5.55;;;1.55;;
24761;SDS011;12865;51.934;10.330;2023-03-16T07:37:59;3.78;;;1.15;;
24761;SDS011;12865;51.934;10.330;2023-03-16T07:40:45;5.07;;;1.15;;
24761;SDS011;12865;51.934;10.330;2023-03-16T07:43:31;1.88;;;0.98;;
24761;SDS011;12865;51.934;10.330;2023-03-16T07:46:17;5.93;;;1.38;;
24761;SDS011;12865;51.934;10.330;2023-03-16T07:49:03;2.65;;;1.10;;
24761;SDS011;12865;51.934;10.330;2023-03-16T07:51:49;2.33;;;1.13;;
24761;SDS011;12865;51.934;10.330;2023-03-16T07:54:34;5.35;;;1.17;;
24761;SDS011;12865;51.934;10.330;2023-03-16T07:57:20;4.78;;;1.40;;
24761;SDS011;12865;51.934;10.330;2023-03-16T08:00:06;4.28;;;1.08;;
24761;SDS011;12865;51.934;10.330;2023-03-16T08:02:53;5.95;;;1.40;;
24761;SDS011;12865;51.934;10.330;2023-03-16T08:05:40;3.92;;;1.23;;
24761;SDS011;12865;51.934;10.330;2023-03-16T08:08:26;4.43;;;1.23;;
24761;SDS011;12865;51.934;10.330;2023-03-16T08:11:12;5.20;;;1.20;;
24761;SDS011;12865;51.934;10.330;2023-03-16T08:13:58;3.33;;;1.40;;
24761;SDS011;12865;51.934;10.330;2023-03-16T08:16:44;5.20;;;1.30;;
24761;SDS011;12865;51.934;10.330;2023-03-16T08:19:29;2.67;;;1.10;;
24761;SDS011;12865;51.934;10.330;2023-03-16T08:22:16;2.42;;;1.00;;
24761;SDS011;12865;51.934;10.330;2023-03-16T08:25:03;4.70;;;1.10;;
24761;SDS011;12865;51.934;10.330;2023-03-16T08:27:50;3.80;;;1.10;;
24761;SDS011;12865;51.934;10.330;2023-03-16T08:30:42;2.10;;;0.90;;
24761;SDS011;12865;51.934;10.330;2023-03-16T08:33:30;2.67;;;1.33;;
24761;SDS011;12865;51.934;10.330;2023-03-16T08:36:16;3.15;;;1.10;;
24761;SDS011;12865;51.934;10.330;2023-03-16T08:39:03;3.53;;;1.00;;
24761;SDS011;12865;51.934;10.330;2023-03-16T08:41:50;4.78;;;1.92;;
24761;SDS011;12865;51.934;10.330;2023-03-16T08:44:36;3.28;;;1.10;;
24761;SDS011;12865;51.934;10.330;2023-03-16T08:47:22;3.13;;;1.20;;
24761;SDS011;12865;51.934;10.330;2023-03-16T08:50:09;5.07;;;1.10;;
24761;SDS011;12865;51.934;10.330;2023-03-16T08:52:57;2.20;;;1.10;;
24761;SDS011;12865;51.934;10.330;2023-03-16T08:55:43;5.60;;;1.25;;
24761;SDS011;12865;51.934;10.330;2023-03-16T08:58:30;3.35;;;1.10;;
24761;SDS011;12865;51.934;10.330;2023-03-16T09:01:17;3.20;;;1.10;;
24761;SDS011;12865;51.934;10.330;2023-03-16T09:04:03;2.20;;;0.90;;
24761;SDS011;12865;51.934;10.330;2023-03-16T09:06:49;4.32;;;1.20;;
24761;SDS011;12865;51.934;10.330;2023-03-16T09:09:36;3.03;;;1.10;;
24761;SDS011;12865;51.934;10.330;2023-03-16T09:12:21;5.15;;;1.20;;
24761;SDS011;12865;51.934;10.330;2023-03-16T09:15:08;5.70;;;1.48;;
24761;SDS011;12865;51.934;10.330;2023-03-16T09:17:56;2.50;;;0.87;;
24761;SDS011;12865;51.934;10.330;2023-03-16T09:20:44;5.77;;;1.23;;
24761;SDS011;12865;51.934;10.330;2023-03-16T09:23:32;2.63;;;0.93;;
24761;SDS011;12865;51.934;10.330;2023-03-16T09:26:18;4.93;;;1.33;;
24761;SDS011;12865;51.934;10.330;2023-03-16T09:29:05;2.53;;;1.15;;
24761;SDS011;12865;51.934;10.330;2023-03-16T09:31:53;3.08;;;1.10;;
24761;SDS011;12865;51.934;10.330;2023-03-16T09:34:39;2.80;;;0.98;;
24761;SDS011;12865;51.934;10.330;2023-03-16T09:37:25;2.63;;;0.85;;
24761;SDS011;12865;51.934;10.330;2023-03-16T09:40:24;2.15;;;1.00;;
24761;SDS011;12865;51.934;10.330;2023-03-16T09:43:19;1.42;;;0.70;;
24761;SDS011;12865;51.934;10.330;2023-03-16T09:49:14;1.65;;;1.05;;
24761;SDS011;12865;51.934;10.330;2023-03-16T09:52:22;1.88;;;1.15;;
24761;SDS011;12865;51.934;10.330;2023-03-16T09:58:35;2.88;;;1.00;;
24761;SDS011;12865;51.934;10.330;2023-03-16T10:13:40;1.73;;;0.70;;
24761;SDS011;12865;51.934;10.330;2023-03-16T10:16:34;1.70;;;0.68;;
24761;SDS011;12865;51.934;10.330;2023-03-16T10:22:33;2.08;;;1.10;;
24761;SDS011;12865;51.934;10.330;2023-03-16T10:25:26;2.85;;;1.13;;
24761;SDS011;12865;51.934;10.330;2023-03-16T10:28:20;4.78;;;1.20;;
24761;SDS011;12865;51.934;10.330;2023-03-16T10:31:07;1.80;;;0.90;;
24761;SDS011;12865;51.934;10.330;2023-03-16T10:33:57;3.45;;;1.00;;
24761;SDS011;12865;51.934;10.330;2023-03-16T10:36:49;2.70;;;1.10;;
24761;SDS011;12865;51.934;10.330;2023-03-16T10:39:37;6.30;;;1.20;;
24761;SDS011;12865;51.934;10.330;2023-03-16T10:45:23;2.92;;;1.08;;
24761;SDS011;12865;51.934;10.330;2023-03-16T10:48:18;1.58;;;1.00;;
24761;SDS011;12865;51.934;10.330;2023-03-16T10:51:11;4.05;;;1.20;;
24761;SDS011;12865;51.934;10.330;2023-03-16T10:54:06;4.20;;;1.30;;
24761;SDS011;12865;51.934;10.330;2023-03-16T10:56:58;1.70;;;1.15;;
24761;SDS011;12865;51.934;10.330;2023-03-16T10:59:49;3.58;;;1.00;;
24761;SDS011;12865;51.934;10.330;2023-03-16T11:02:37;1.70;;;0.88;;
24761;SDS011;12865;51.934;10.330;2023-03-16T11:05:24;3.33;;;1.10;;
24761;SDS011;12865;51.934;10.330;2023-03-16T11:08:19;2.30;;;1.10;;
24761;SDS011;12865;51.934;10.330;2023-03-16T11:11:20;2.50;;;1.10;;
24761;SDS011;12865;51.934;10.330;2023-03-16T11:14:12;1.30;;;1.10;;
24761;SDS011;12865;51.934;10.330;2023-03-16T11:17:01;4.13;;;1.30;;
24761;SDS011;12865;51.934;10.330;2023-03-16T11:19:55;4.78;;;1.20;;
24761;SDS011;12865;51.934;10.330;2023-03-16T11:22:46;2.78;;;1.10;;
24761;SDS011;12865;51.934;10.330;2023-03-16T11:25:36;3.40;;;1.55;;
24761;SDS011;12865;51.934;10.330;2023-03-16T11:28:37;3.17;;;1.42;;
24761;SDS011;12865;51.934;10.330;2023-03-16T11:31:47;1.75;;;0.93;;
24761;SDS011;12865;51.934;10.330;2023-03-16T11:46:40;2.97;;;1.40;;
24761;SDS011;12865;51.934;10.330;2023-03-16T11:55:30;3.95;;;1.55;;
24761;SDS011;12865;51.934;10.330;2023-03-16T12:02:30;2.45;;;1.00;;
24761;SDS011;12865;51.934;10.330;2023-03-16T12:08:28;3.00;;;1.02;;
24761;SDS011;12865;51.934;10.330;2023-03-16T12:11:19;2.33;;;1.00;;
24761;SDS011;12865;51.934;10.330;2023-03-16T12:16:58;2.25;;;1.23;;
24761;SDS011;12865;51.934;10.330;2023-03-16T12:22:47;1.67;;;1.13;;
24761;SDS011;12865;51.934;10.330;2023-03-16T12:25:38;2.33;;;1.08;;
24761;SDS011;12865;51.934;10.330;2023-03-16T12:28:27;4.13;;;1.30;;
24761;SDS011;12865;51.934;10.330;2023-03-16T12:31:15;1.52;;;1.20;;
24761;SDS011;12865;51.934;10.330;2023-03-16T12:37:08;2.80;;;1.48;;
24761;SDS011;12865;51.934;10.330;2023-03-16T12:46:26;3.00;;;1.35;;
24761;SDS011;12865;51.934;10.330;2023-03-16T12:49:14;2.05;;;1.40;;
24761;SDS011;12865;51.934;10.330;2023-03-16T12:52:02;3.38;;;1.33;;
24761;SDS011;12865;51.934;10.330;2023-03-16T12:54:50;2.67;;;1.50;;
24761;SDS011;12865;51.934;10.330;2023-03-16T12:57:57;2.50;;;1.27;;
24761;SDS011;12865;51.934;10.330;2023-03-16T13:00:53;3.40;;;1.60;;
24761;SDS011;12865;51.934;10.330;2023-03-16T13:03:42;1.48;;;1.33;;
24761;SDS011;12865;51.934;10.330;2023-03-16T13:06:31;3.20;;;1.30;;
24761;SDS011;12865;51.934;10.330;2023-03-16T13:09:21;3.47;;;1.67;;
24761;SDS011;12865;51.934;10.330;2023-03-16T13:12:29;2.92;;;1.23;;
24761;SDS011;12865;51.934;10.330;2023-03-16T13:20:55;2.70;;;1.60;;
24761;SDS011;12865;51.934;10.330;2023-03-16T13:23:59;3.15;;;1.52;;
24761;SDS011;12865;51.934;10.330;2023-03-16T13:30:21;2.97;;;1.58;;
24761;SDS011;12865;51.934;10.330;2023-03-16T13:36:04;3.88;;;2.08;;
24761;SDS011;12865;51.934;10.330;2023-03-16T13:38:54;3.72;;;1.60;;
24761;SDS011;12865;51.934;10.330;2023-03-16T13:42:18;2.95;;;1.75;;
24761;SDS011;12865;51.934;10.330;2023-03-16T13:45:14;3.35;;;1.67;;
24761;SDS011;12865;51.934;10.330;2023-03-16T13:48:03;3.27;;;1.73;;
24761;SDS011;12865;51.934;10.330;2023-03-16T13:50:50;2.75;;;1.73;;
24761;SDS011;12865;51.934;10.330;2023-03-16T13:53:38;6.28;;;1.90;;
24761;SDS011;12865;51.934;10.330;2023-03-16T13:56:25;2.58;;;1.70;;
24761;SDS011;12865;51.934;10.330;2023-03-16T13:59:13;3.20;;;1.73;;
24761;SDS011;12865;51.934;10.330;2023-03-16T14:02:00;3.13;;;1.85;;
24761;SDS011;12865;51.934;10.330;2023-03-16T14:04:46;4.60;;;2.10;;
24761;SDS011;12865;51.934;10.330;2023-03-16T14:07:35;3.38;;;2.25;;
24761;SDS011;12865;51.934;10.330;2023-03-16T14:10:23;7.43;;;2.22;;
24761;SDS011;12865;51.934;10.330;2023-03-16T14:16:17;3.72;;;2.17;;
24761;SDS011;12865;51.934;10.330;2023-03-16T14:19:07;3.55;;;1.80;;
24761;SDS011;12865;51.934;10.330;2023-03-16T14:22:01;3.15;;;1.77;;
24761;SDS011;12865;51.934;10.330;2023-03-16T14:24:52;4.47;;;1.98;;
24761;SDS011;12865;51.934;10.330;2023-03-16T14:27:42;2.53;;;1.92;;
24761;SDS011;12865;51.934;10.330;2023-03-16T14:30:29;2.35;;;1.90;;
24761;SDS011;12865;51.934;10.330;2023-03-16T14:33:22;5.95;;;2.30;;
24761;SDS011;12865;51.934;10.330;2023-03-16T14:36:17;3.30;;;1.83;;
24761;SDS011;12865;51.934;10.330;2023-03-16T14:39:10;2.30;;;1.80;;
24761;SDS011;12865;51.934;10.330;2023-03-16T14:42:00;2.95;;;1.70;;
24761;SDS011;12865;51.934;10.330;2023-03-16T14:44:48;2.88;;;1.90;;
24761;SDS011;12865;51.934;10.330;2023-03-16T14:47:37;3.88;;;2.20;;
24761;SDS011;12865;51.934;10.330;2023-03-16T14:50:26;4.03;;;2.10;;
24761;SDS011;12865;51.934;10.330;2023-03-16T14:53:12;3.42;;;2.25;;
24761;SDS011;12865;51.934;10.330;2023-03-16T14:55:58;2.13;;;1.70;;
24761;SDS011;12865;51.934;10.330;2023-03-16T14:58:44;4.70;;;1.98;;
24761;SDS011;12865;51.934;10.330;2023-03-16T15:01:29;4.70;;;2.00;;
24761;SDS011;12865;51.934;10.330;2023-03-16T15:04:16;4.95;;;1.70;;
24761;SDS011;12865;51.934;10.330;2023-03-16T15:07:17;4.22;;;2.40;;
24761;SDS011;12865;51.934;10.330;2023-03-16T15:10:15;2.90;;;1.60;;
24761;SDS011;12865;51.934;10.330;2023-03-16T15:13:10;2.00;;;1.63;;
24761;SDS011;12865;51.934;10.330;2023-03-16T15:16:00;3.45;;;1.70;;
24761;SDS011;12865;51.934;10.330;2023-03-16T15:18:48;3.80;;;1.40;;
24761;SDS011;12865;51.934;10.330;2023-03-16T15:21:34;2.75;;;1.67;;
24761;SDS011;12865;51.934;10.330;2023-03-16T15:24:20;3.08;;;1.38;;
24761;SDS011;12865;51.934;10.330;2023-03-16T15:27:14;1.67;;;1.30;;
24761;SDS011;12865;51.934;10.330;2023-03-16T15:30:05;3.47;;;1.60;;
24761;SDS011;12865;51.934;10.330;2023-03-16T15:32:59;3.55;;;1.58;;
24761;SDS011;12865;51.934;10.330;2023-03-16T15:35:45;3.45;;;1.75;;
24761;SDS011;12865;51.934;10.330;2023-03-16T15:38:34;2.78;;;1.40;;
24761;SDS011;12865;51.934;10.330;2023-03-16T15:41:24;1.83;;;1.25;;
24761;SDS011;12865;51.934;10.330;2023-03-16T15:44:10;4.38;;;1.60;;
24761;SDS011;12865;51.934;10.330;2023-03-16T15:46:57;2.13;;;1.30;;
24761;SDS011;12865;51.934;10.330;2023-03-16T15:49:42;2.70;;;1.35;;
24761;SDS011;12865;51.934;10.330;2023-03-16T15:52:32;1.10;;;1.00;;
24761;SDS011;12865;51.934;10.330;2023-03-16T15:55:55;2.00;;;1.20;;
24761;SDS011;12865;51.934;10.330;2023-03-16T15:58:39;2.85;;;1.42;;
24761;SDS011;12865;51.934;10.330;2023-03-16T16:01:28;1.37;;;1.10;;
24761;SDS011;12865;51.934;10.330;2023-03-16T16:04:19;2.15;;;1.23;;
24761;SDS011;12865;51.934;10.330;2023-03-16T16:09:55;2.13;;;1.30;;
24761;SDS011;12865;51.934;10.330;2023-03-16T16:12:42;1.30;;;1.05;;
24761;SDS011;12865;51.934;10.330;2023-03-16T16:15:35;2.75;;;1.10;;
24761;SDS011;12865;51.934;10.330;2023-03-16T16:18:29;2.08;;;1.10;;
24761;SDS011;12865;51.934;10.330;2023-03-16T16:21:20;2.00;;;1.08;;
24761;SDS011;12865;51.934;10.330;2023-03-16T16:24:09;1.42;;;1.02;;
24761;SDS011;12865;51.934;10.330;2023-03-16T16:26:55;1.40;;;0.93;;
24761;SDS011;12865;51.934;10.330;2023-03-16T16:29:40;2.88;;;1.05;;
24761;SDS011;12865;51.934;10.330;2023-03-16T16:32:26;1.75;;;0.95;;
24761;SDS011;12865;51.934;10.330;2023-03-16T16:35:13;2.17;;;1.20;;
24761;SDS011;12865;51.934;10.330;2023-03-16T16:38:00;1.97;;;0.80;;
24761;SDS011;12865;51.934;10.330;2023-03-16T16:40:46;1.58;;;1.23;;
24761;SDS011;12865;51.934;10.330;2023-03-16T16:43:42;2.75;;;1.13;;
24761;SDS011;12865;51.934;10.330;2023-03-16T16:46:31;0.93;;;0.90;;
24761;SDS011;12865;51.934;10.330;2023-03-16T16:49:26;2.13;;;1.10;;
24761;SDS011;12865;51.934;10.330;2023-03-16T16:52:15;1.83;;;1.63;;
24761;SDS011;12865;51.934;10.330;2023-03-16T16:55:02;3.08;;;1.17;;
24761;SDS011;12865;51.934;10.330;2023-03-16T16:57:48;2.00;;;1.23;;
24761;SDS011;12865;51.934;10.330;2023-03-16T17:00:38;1.42;;;1.05;;
24761;SDS011;12865;51.934;10.330;2023-03-16T17:03:26;2.70;;;1.15;;
24761;SDS011;12865;51.934;10.330;2023-03-16T17:06:14;3.08;;;1.20;;
24761;SDS011;12865;51.934;10.330;2023-03-16T17:09:01;4.47;;;2.60;;
24761;SDS011;12865;51.934;10.330;2023-03-16T17:11:47;3.45;;;1.40;;
24761;SDS011;12865;51.934;10.330;2023-03-16T17:14:33;2.58;;;1.50;;
24761;SDS011;12865;51.934;10.330;2023-03-16T17:17:19;1.67;;;1.20;;
24761;SDS011;12865;51.934;10.330;2023-03-16T17:20:12;1.70;;;1.00;;
24761;SDS011;12865;51.934;10.330;2023-03-16T17:29:27;2.15;;;1.20;;
24761;SDS011;12865;51.934;10.330;2023-03-16T17:32:18;1.40;;;1.00;;
24761;SDS011;12865;51.934;10.330;2023-03-16T17:35:11;3.08;;;1.35;;
24761;SDS011;12865;51.934;10.330;2023-03-16T17:37:59;2.88;;;1.50;;
24761;SDS011;12865;51.934;10.330;2023-03-16T17:40:45;2.22;;;1.20;;
24761;SDS011;12865;51.934;10.330;2023-03-16T17:43:31;3.17;;;1.10;;
24761;SDS011;12865;51.934;10.330;2023-03-16T17:46:17;1.15;;;1.10;;
24761;SDS011;12865;51.934;10.330;2023-03-16T17:49:11;1.67;;;1.20;;
24761;SDS011;12865;51.934;10.330;2023-03-16T17:51:58;3.08;;;1.20;;
24761;SDS011;12865;51.934;10.330;2023-03-16T17:54:46;2.65;;;0.90;;
24761;SDS011;12865;51.934;10.330;2023-03-16T17:57:33;3.13;;;1.38;;
24761;SDS011;12865;51.934;10.330;2023-03-16T18:03:09;2.70;;;1.02;;
24761;SDS011;12865;51.934;10.330;2023-03-16T18:05:58;1.27;;;1.10;;
24761;SDS011;12865;51.934;10.330;2023-03-16T18:08:43;1.95;;;0.98;;
24761;SDS011;12865;51.934;10.330;2023-03-16T18:11:30;1.92;;;0.93;;
24761;SDS011;12865;51.934;10.330;2023-03-16T18:14:27;1.15;;;1.05;;
24761;SDS011;12865;51.934;10.330;2023-03-16T18:17:28;1.40;;;1.30;;
24761;SDS011;12865;51.934;10.330;2023-03-16T18:20:24;3.45;;;1.65;;
24761;SDS011;12865;51.934;10.330;2023-03-16T18:23:25;1.80;;;1.17;;
24761;SDS011;12865;51.934;10.330;2023-03-16T18:26:12;1.63;;;1.48;;